Highland Park, Michigan
Current Conditions -  °F | °C
As of 2:53 AM on Monday 24 Nov 2014 (Local Time) from KDET Reporting Station
Light Rain Light Rain  
Wind Chill: 56°   Ceiling: 1200
Heat Index: 56°   Visibility: 6mi
Dew Point: 52°   Wind: 16mph
Humidity: 87%   Direction: 180°S
Pressure: 29.1"   Gusts: NA
Location:  42.41°N, 83.09°W
Report Text: KDET 240753Z 18014KT 6SM -RA BR OVC012 13/11 A2910 RMK AO2 PK WND 19026/0736 SLP854 P0001 T01330111
Loading
Personal Weather Stations






























Interactive Weather Map New forecast layout! Learn more

10-Day Weather Forecast

Advertisements
Track Severe Weather on mobile